Time;durP1;ratioP1;P1;durP2;ratioP2;P2;SDS_P1;SDS_P2;PMS_P1;PMS_P2;Temp;Humidity;BMP_temperature;BMP_pressure;BME280_temperature;BME280_humidity;BME280_pressure;Samples;Min_cycle;Max_cycle;Signal;HPM_P1;HPM_P2
2022/07/13 00:00:32;;;;;;;4.00;1.80;;;20.00;63.30;;;;;;5059104;28;20496;-75
2022/07/13 00:03:01;;;;;;;3.70;1.40;;;20.00;63.30;;;;;;5061546;28;20467;-74
2022/07/13 00:05:29;;;;;;;4.00;1.77;;;19.90;63.40;;;;;;5056729;28;20453;-74
2022/07/13 00:07:57;;;;;;;4.30;1.63;;;19.90;63.50;;;;;;5071136;28;20488;-74
2022/07/13 00:10:25;;;;;;;4.13;1.63;;;19.80;63.60;;;;;;5065360;28;20791;-73
2022/07/13 00:12:54;;;;;;;4.33;1.70;;;19.80;63.60;;;;;;5062692;28;21045;-74
2022/07/13 00:15:23;;;;;;;5.07;2.10;;;19.80;63.70;;;;;;5061627;28;20465;-75
2022/07/13 00:17:51;;;;;;;5.07;1.80;;;19.80;63.70;;;;;;5058158;28;21108;-74
2022/07/13 00:20:19;;;;;;;5.27;1.57;;;19.70;63.80;;;;;;5061630;28;20579;-75
2022/07/13 00:22:46;;;;;;;4.13;1.77;;;19.70;63.90;;;;;;5053602;28;20463;-75
2022/07/13 00:25:14;;;;;;;4.57;1.67;;;19.70;63.90;;;;;;5053868;28;20468;-75
2022/07/13 00:27:42;;;;;;;4.30;1.90;;;19.60;64.00;;;;;;5057502;28;20840;-75
2022/07/13 00:30:12;;;;;;;4.60;1.77;;;19.60;64.10;;;;;;5058128;28;20499;-75
2022/07/13 00:32:40;;;;;;;4.47;1.90;;;19.60;64.10;;;;;;5054414;28;21037;-74
2022/07/13 00:35:08;;;;;;;5.07;2.30;;;19.60;64.10;;;;;;5038508;28;20552;-74
2022/07/13 00:37:36;;;;;;;4.43;1.60;;;19.50;64.20;;;;;;5060817;28;20473;-74
2022/07/13 00:40:05;;;;;;;3.90;1.33;;;19.50;64.30;;;;;;5041268;28;20473;-74
2022/07/13 00:42:33;;;;;;;3.60;1.67;;;19.50;64.40;;;;;;5056067;28;20460;-74
2022/07/13 00:45:01;;;;;;;4.83;1.97;;;19.60;64.40;;;;;;5055053;28;20479;-74
2022/07/13 00:47:32;;;;;;;3.43;1.60;;;19.60;64.50;;;;;;5060316;28;20483;-74
2022/07/13 00:50:01;;;;;;;4.63;1.80;;;19.60;64.50;;;;;;5049255;28;20506;-74
2022/07/13 00:52:30;;;;;;;3.87;1.80;;;19.60;64.40;;;;;;5043659;28;20463;-74
2022/07/13 00:54:58;;;;;;;3.90;1.90;;;19.60;64.30;;;;;;5040223;28;20469;-74
2022/07/13 00:57:28;;;;;;;4.47;1.90;;;19.60;64.30;;;;;;5042463;28;20469;-74
2022/07/13 00:59:56;;;;;;;3.57;1.50;;;19.60;64.30;;;;;;5058156;28;20469;-74
2022/07/13 01:02:25;;;;;;;4.20;2.00;;;19.60;64.40;;;;;;5046691;28;20487;-74
2022/07/13 01:04:54;;;;;;;4.90;1.77;;;19.60;64.40;;;;;;5054751;28;20550;-75
2022/07/13 01:07:22;;;;;;;5.60;1.80;;;19.60;64.50;;;;;;5039457;28;20468;-74
2022/07/13 01:09:50;;;;;;;4.53;1.63;;;19.60;64.50;;;;;;5039969;28;20482;-75
2022/07/13 01:12:18;;;;;;;4.80;1.90;;;19.60;64.60;;;;;;5039092;28;20487;-75
2022/07/13 01:14:52;;;;;;;4.07;1.90;;;19.60;64.60;;;;;;5056568;28;20984;-75
2022/07/13 01:17:20;;;;;;;4.20;2.00;;;19.60;64.70;;;;;;5048878;28;20523;-74
2022/07/13 01:19:48;;;;;;;8.03;1.90;;;19.50;64.70;;;;;;5054730;28;21064;-75
2022/07/13 01:22:21;;;;;;;3.90;1.73;;;19.50;64.80;;;;;;5056149;28;21274;-74
2022/07/13 01:24:52;;;;;;;6.07;2.40;;;19.40;64.90;;;;;;5052976;28;20483;-76
2022/07/13 01:27:20;;;;;;;5.03;2.93;;;19.40;65.00;;;;;;5055872;28;20456;-75
2022/07/13 01:29:48;;;;;;;6.67;2.07;;;19.40;65.20;;;;;;5055761;28;20495;-75
2022/07/13 01:32:17;;;;;;;5.40;2.23;;;19.50;65.30;;;;;;5038350;28;20602;-75
2022/07/13 01:34:46;;;;;;;4.57;2.67;;;19.50;65.30;;;;;;5051730;28;20872;-74
2022/07/13 01:37:15;;;;;;;4.37;2.37;;;19.60;65.30;;;;;;5054370;28;20484;-74
2022/07/13 01:39:43;;;;;;;6.80;2.60;;;19.60;65.20;;;;;;5037578;28;20484;-74
2022/07/13 01:42:12;;;;;;;4.70;2.20;;;19.60;65.30;;;;;;5054688;28;20478;-73
2022/07/13 01:44:40;;;;;;;4.57;2.23;;;19.50;65.30;;;;;;5056135;28;21160;-75
2022/07/13 01:47:09;;;;;;;4.67;2.30;;;19.60;65.40;;;;;;5041714;28;21134;-72
2022/07/13 01:49:38;;;;;;;3.80;2.00;;;19.50;65.40;;;;;;5040140;28;21247;-75
2022/07/13 01:52:06;;;;;;;4.50;2.03;;;19.50;65.50;;;;;;5053011;28;20458;-74
2022/07/13 01:54:34;;;;;;;4.07;2.13;;;19.40;65.60;;;;;;5054443;28;20507;-73
2022/07/13 02:01:16;;;;;;;3.90;2.03;;;19.40;65.80;;;;;;5058768;28;21185;-76
2022/07/13 02:03:48;;;;;;;5.63;2.33;;;19.40;66.00;;;;;;5057040;28;21042;-74
2022/07/13 02:06:16;;;;;;;5.57;2.23;;;19.50;66.10;;;;;;5053800;28;20484;-74
2022/07/13 02:08:44;;;;;;;3.97;2.07;;;19.50;66.10;;;;;;5058078;28;21200;-73
2022/07/13 02:11:18;;;;;;;4.00;1.87;;;19.50;66.10;;;;;;5036263;28;21006;-75
2022/07/13 02:13:47;;;;;;;4.10;2.10;;;19.60;66.20;;;;;;5061310;28;20475;-72
2022/07/13 02:16:17;;;;;;;6.20;2.60;;;19.60;66.20;;;;;;5034715;28;20476;-72
2022/07/13 02:18:45;;;;;;;6.00;2.40;;;19.60;66.30;;;;;;5056435;28;20567;-73
2022/07/13 02:21:14;;;;;;;4.50;1.60;;;19.70;66.30;;;;;;5038911;28;20489;-73
2022/07/13 02:23:42;;;;;;;4.17;2.20;;;19.70;66.30;;;;;;5041962;28;20530;-73
2022/07/13 02:26:10;;;;;;;4.10;1.97;;;19.80;66.30;;;;;;5037029;28;20489;-75
2022/07/13 02:28:40;;;;;;;4.30;2.37;;;19.80;66.30;;;;;;5056341;28;21096;-75
2022/07/13 02:31:08;;;;;;;4.47;2.10;;;19.80;66.30;;;;;;5050892;28;20500;-74
2022/07/13 02:33:38;;;;;;;4.23;2.33;;;19.80;66.30;;;;;;5040463;28;20518;-74
2022/07/13 02:36:06;;;;;;;3.90;2.00;;;19.80;66.30;;;;;;5057579;28;21255;-75
2022/07/13 02:38:34;;;;;;;8.90;2.47;;;19.80;66.30;;;;;;5056795;28;21090;-75
2022/07/13 02:41:02;;;;;;;4.80;1.90;;;19.80;66.30;;;;;;5040409;28;20475;-74
2022/07/13 02:43:30;;;;;;;4.00;1.87;;;19.70;66.30;;;;;;5056321;28;20469;-74
2022/07/13 02:45:58;;;;;;;4.07;1.97;;;19.70;66.40;;;;;;5053192;28;20488;-74
2022/07/13 02:48:27;;;;;;;4.33;2.10;;;19.70;66.40;;;;;;5055890;28;20484;-74
2022/07/13 02:50:56;;;;;;;4.00;2.10;;;19.70;66.50;;;;;;5042201;28;20544;-75
2022/07/13 02:53:24;;;;;;;4.43;2.30;;;19.60;66.50;;;;;;5034040;28;20575;-74
2022/07/13 02:55:52;;;;;;;7.20;2.17;;;19.60;66.50;;;;;;5054256;28;20472;-74
2022/07/13 02:58:20;;;;;;;5.27;2.50;;;19.50;66.60;;;;;;5037343;28;20949;-74
2022/07/13 03:00:48;;;;;;;5.10;2.60;;;19.50;66.70;;;;;;5042889;28;20479;-74
2022/07/13 03:03:17;;;;;;;4.47;2.20;;;19.50;66.70;;;;;;5043232;28;20451;-76
2022/07/13 03:05:47;;;;;;;9.17;1.90;;;19.50;66.80;;;;;;5052397;28;20566;-73
2022/07/13 03:08:17;;;;;;;3.97;1.80;;;19.40;66.80;;;;;;5038728;28;21107;-75
2022/07/13 03:10:45;;;;;;;4.57;2.07;;;19.40;66.90;;;;;;5051411;28;20464;-74
2022/07/13 03:13:13;;;;;;;4.00;1.80;;;19.30;67.00;;;;;;5037900;28;20451;-74
2022/07/13 03:15:42;;;;;;;10.13;2.37;;;19.30;67.00;;;;;;5035734;28;20468;-75
2022/07/13 03:18:10;;;;;;;4.80;2.27;;;19.30;67.00;;;;;;5041734;28;20484;-75
2022/07/13 03:20:39;;;;;;;6.70;2.30;;;19.30;67.10;;;;;;5052018;28;20884;-72
2022/07/13 03:23:07;;;;;;;4.83;2.20;;;19.30;67.20;;;;;;5052332;28;21617;-74
2022/07/13 03:25:37;;;;;;;5.60;1.90;;;19.30;67.20;;;;;;5043101;28;21160;-74
2022/07/13 03:28:05;;;;;;;3.73;1.97;;;19.30;67.20;;;;;;5044836;28;20492;-74
2022/07/13 03:30:33;;;;;;;8.37;2.30;;;19.30;67.20;;;;;;5060926;28;20566;-74
2022/07/13 03:33:01;;;;;;;5.10;1.90;;;19.30;67.30;;;;;;5055349;28;20549;-75
2022/07/13 03:35:29;;;;;;;5.43;2.00;;;19.30;67.20;;;;;;5044666;28;20466;-75
2022/07/13 03:37:57;;;;;;;3.97;1.80;;;19.30;67.30;;;;;;5041547;28;20490;-75
2022/07/13 03:40:29;;;;;;;3.67;1.90;;;19.30;67.30;;;;;;5038565;28;20495;-74
2022/07/13 03:42:58;;;;;;;5.00;2.10;;;19.30;67.20;;;;;;5036137;28;20500;-74
2022/07/13 03:45:27;;;;;;;4.70;2.17;;;19.20;67.20;;;;;;5053079;28;20476;-74
2022/07/13 03:47:55;;;;;;;4.40;1.93;;;19.20;67.20;;;;;;5051114;28;20487;-74
2022/07/13 03:50:23;;;;;;;5.33;2.37;;;19.20;67.30;;;;;;5054739;28;20727;-74
2022/07/13 03:52:51;;;;;;;13.80;1.90;;;19.20;67.30;;;;;;5045625;28;20921;-74
2022/07/13 03:55:20;;;;;;;4.10;2.13;;;19.20;67.30;;;;;;5040386;28;20471;-74
2022/07/13 03:57:48;;;;;;;3.80;1.53;;;19.10;67.30;;;;;;5043330;28;20466;-74
2022/07/13 04:00:19;;;;;;;3.60;1.70;;;19.10;67.40;;;;;;5052040;28;20467;-73
2022/07/13 04:02:51;;;;;;;5.00;2.03;;;19.10;67.40;;;;;;5043351;28;21001;-75
2022/07/13 04:05:20;;;;;;;4.00;2.20;;;19.10;67.30;;;;;;5040768;28;20458;-75
2022/07/13 04:07:48;;;;;;;4.60;2.03;;;19.10;67.30;;;;;;5043302;28;20843;-74
2022/07/13 04:10:18;;;;;;;3.70;1.80;;;19.10;67.30;;;;;;5057943;28;20464;-74
2022/07/13 04:12:48;;;;;;;4.20;1.80;;;19.00;67.50;;;;;;5043535;28;20463;-74
2022/07/13 04:15:18;;;;;;;4.90;2.13;;;19.00;67.60;;;;;;5039193;28;20488;-73
2022/07/13 04:17:47;;;;;;;4.60;2.07;;;19.10;67.70;;;;;;5054289;28;20815;-75
2022/07/13 04:20:15;;;;;;;6.20;2.13;;;19.10;67.70;;;;;;5058139;28;20547;-76
2022/07/13 04:22:46;;;;;;;4.10;1.80;;;19.20;67.70;;;;;;5055322;28;20495;-74
2022/07/13 04:25:15;;;;;;;4.53;2.37;;;19.20;67.80;;;;;;5050524;28;20460;-76
2022/07/13 04:27:45;;;;;;;3.93;1.97;;;19.20;67.80;;;;;;5039850;28;21000;-75
2022/07/13 04:30:13;;;;;;;4.67;2.50;;;19.30;67.90;;;;;;5054799;28;20468;-73
2022/07/13 04:32:43;;;;;;;4.83;1.93;;;19.30;68.00;;;;;;5039814;28;20491;-75
2022/07/13 04:35:11;;;;;;;4.70;1.83;;;19.30;68.00;;;;;;5043851;28;20824;-76
2022/07/13 04:37:43;;;;;;;4.33;2.17;;;19.40;68.00;;;;;;5045476;28;20459;-76
2022/07/13 04:40:13;;;;;;;4.90;2.30;;;19.30;68.10;;;;;;5042395;28;20466;-73
2022/07/13 04:42:41;;;;;;;8.00;2.40;;;19.40;68.30;;;;;;5055084;28;20489;-74
2022/07/13 04:45:11;;;;;;;4.33;2.33;;;19.50;68.30;;;;;;5055613;28;20472;-74
2022/07/13 04:47:39;;;;;;;4.37;2.60;;;19.60;68.10;;;;;;5036399;28;21186;-75
2022/07/13 04:50:09;;;;;;;5.20;1.90;;;19.60;68.10;;;;;;5041012;28;20567;-76
2022/07/13 04:52:38;;;;;;;7.30;1.90;;;19.60;68.10;;;;;;5039597;28;21309;-74
2022/07/13 04:55:07;;;;;;;5.83;2.17;;;19.60;68.10;;;;;;5038051;28;20470;-72
2022/07/13 04:57:35;;;;;;;4.70;2.40;;;19.70;68.10;;;;;;5033265;28;20500;-76
2022/07/13 05:00:04;;;;;;;8.60;2.50;;;19.70;68.10;;;;;;5036171;28;21288;-75
2022/07/13 05:02:33;;;;;;;5.17;2.23;;;19.70;68.00;;;;;;5054170;28;20485;-75
2022/07/13 05:05:01;;;;;;;4.53;2.40;;;19.70;68.10;;;;;;5051787;28;20464;-74
2022/07/13 05:07:31;;;;;;;4.30;2.33;;;19.70;68.10;;;;;;5056539;28;20446;-75
2022/07/13 05:10:06;;;;;;;5.30;2.40;;;19.70;68.20;;;;;;5059491;28;20540;-73
2022/07/13 05:12:40;;;;;;;4.97;2.27;;;19.80;68.30;;;;;;5056878;28;20538;-76
2022/07/13 05:15:10;;;;;;;6.27;2.20;;;19.90;68.40;;;;;;5053701;28;21118;-76
2022/07/13 05:17:39;;;;;;;5.90;2.47;;;19.90;68.40;;;;;;5052907;28;20467;-75
2022/07/13 05:20:09;;;;;;;4.10;2.30;;;20.00;68.40;;;;;;5044967;28;20485;-75
2022/07/13 05:22:43;;;;;;;5.10;2.50;;;20.00;68.40;;;;;;5056346;28;20491;-76
2022/07/13 05:25:11;;;;;;;6.70;2.30;;;20.10;68.40;;;;;;5041148;28;20461;-74
2022/07/13 05:27:39;;;;;;;6.10;2.40;;;20.10;68.40;;;;;;5042520;28;20552;-73
2022/07/13 05:30:08;;;;;;;4.93;2.20;;;20.10;68.40;;;;;;5057865;28;20462;-73
2022/07/13 05:32:36;;;;;;;4.17;2.30;;;20.10;68.50;;;;;;5056457;28;20484;-75
2022/07/13 05:35:05;;;;;;;4.43;2.23;;;20.10;68.50;;;;;;5055976;28;20524;-75
2022/07/13 05:37:35;;;;;;;4.80;2.60;;;20.10;68.50;;;;;;5042039;28;20976;-76
2022/07/13 05:40:05;;;;;;;4.17;2.13;;;20.10;68.60;;;;;;5058748;28;20887;-76
2022/07/13 05:42:33;;;;;;;4.53;2.13;;;20.10;68.60;;;;;;5050303;28;20555;-77
2022/07/13 05:45:03;;;;;;;7.50;1.97;;;20.20;68.60;;;;;;5054292;28;20516;-75
2022/07/13 05:47:32;;;;;;;4.63;2.27;;;20.20;68.60;;;;;;5046021;28;20545;-75
2022/07/13 05:50:00;;;;;;;4.40;2.10;;;20.20;68.60;;;;;;5056067;28;20979;-75
2022/07/13 05:52:29;;;;;;;5.30;2.17;;;20.30;68.60;;;;;;5046562;28;20458;-75
2022/07/13 05:54:57;;;;;;;5.70;2.30;;;20.30;68.60;;;;;;5060068;28;21059;-76
2022/07/13 05:57:33;;;;;;;5.90;2.53;;;20.30;68.60;;;;;;5060106;28;20456;-75
2022/07/13 06:00:01;;;;;;;6.63;3.83;;;20.40;68.50;;;;;;5058355;28;20457;-76
2022/07/13 06:02:39;;;;;;;7.97;3.47;;;20.40;68.50;;;;;;5059523;28;20587;-75
2022/07/13 06:05:08;;;;;;;6.07;2.63;;;20.40;68.50;;;;;;5053436;28;20462;-76
2022/07/13 06:07:36;;;;;;;4.20;2.07;;;20.40;68.50;;;;;;5053697;28;20477;-75
2022/07/13 06:10:05;;;;;;;9.30;2.47;;;20.50;68.50;;;;;;5055845;28;21003;-75
2022/07/13 06:12:34;;;;;;;5.40;2.53;;;20.50;68.50;;;;;;5062881;28;20460;-75
2022/07/13 06:15:02;;;;;;;4.90;2.27;;;20.60;68.50;;;;;;5059751;28;20466;-74
2022/07/13 06:17:31;;;;;;;5.43;2.30;;;20.60;68.50;;;;;;5058651;28;20930;-74
2022/07/13 06:19:58;;;;;;;4.70;2.40;;;20.70;68.40;;;;;;5059932;28;20497;-76
2022/07/13 06:22:26;;;;;;;3.90;2.00;;;20.70;68.40;;;;;;5060413;28;20460;-75
2022/07/13 06:24:54;;;;;;;5.57;2.30;;;20.80;68.30;;;;;;5059837;28;20866;-75
2022/07/13 06:27:22;;;;;;;4.00;1.83;;;20.80;68.30;;;;;;5055117;28;20955;-75
2022/07/13 06:29:51;;;;;;;4.80;2.13;;;20.90;68.10;;;;;;5056317;28;21335;-76
2022/07/13 06:32:19;;;;;;;5.10;2.00;;;21.00;68.00;;;;;;5033642;28;20471;-76
2022/07/13 06:34:48;;;;;;;4.40;1.97;;;21.10;68.00;;;;;;5055663;28;20463;-75
2022/07/13 06:37:16;;;;;;;6.03;1.77;;;21.20;68.00;;;;;;5057990;28;20957;-76
2022/07/13 06:40:04;;;;;;;5.00;2.20;;;21.30;67.90;;;;;;5052932;28;20482;-76
2022/07/13 06:42:32;;;;;;;5.20;1.93;;;21.40;67.80;;;;;;5054890;28;20448;-76
2022/07/13 06:45:01;;;;;;;6.57;2.23;;;21.60;67.70;;;;;;5055177;28;20479;-76
2022/07/13 06:47:29;;;;;;;11.20;2.20;;;21.70;67.40;;;;;;5057109;28;20482;-75
2022/07/13 06:49:57;;;;;;;9.20;1.90;;;21.80;67.30;;;;;;5041976;28;20496;-75
2022/07/13 06:52:25;;;;;;;4.83;1.93;;;21.90;67.20;;;;;;5060611;28;20465;-75
2022/07/13 06:54:53;;;;;;;5.10;2.00;;;22.00;67.00;;;;;;5067038;28;20583;-76
2022/07/13 06:57:21;;;;;;;4.67;2.20;;;22.20;66.80;;;;;;5062753;28;20457;-74
2022/07/13 06:59:49;;;;;;;5.43;1.73;;;22.30;66.60;;;;;;5066096;28;20475;-75
2022/07/13 07:02:18;;;;;;;5.93;2.30;;;22.40;66.20;;;;;;5061519;28;20483;-74
2022/07/13 07:04:47;;;;;;;6.07;1.90;;;22.50;65.90;;;;;;5064854;28;20533;-76
2022/07/13 07:07:14;;;;;;;3.83;1.57;;;22.60;65.70;;;;;;5065693;28;20958;-75
2022/07/13 07:09:42;;;;;;;4.90;1.40;;;22.70;65.50;;;;;;5065093;28;20485;-76
2022/07/13 07:12:10;;;;;;;4.00;1.53;;;22.80;65.20;;;;;;5055466;28;20450;-75
2022/07/13 07:14:38;;;;;;;3.97;1.47;;;22.90;64.90;;;;;;5063786;28;20466;-74
2022/07/13 07:17:06;;;;;;;4.50;1.70;;;23.00;64.70;;;;;;5059690;28;20490;-76
2022/07/13 07:19:36;;;;;;;5.30;1.70;;;23.20;64.60;;;;;;5057671;28;20505;-74
2022/07/13 07:22:04;;;;;;;4.00;2.00;;;23.20;64.40;;;;;;5045328;28;20530;-75
2022/07/13 07:24:32;;;;;;;5.40;1.93;;;23.30;64.10;;;;;;5043736;28;20562;-76
2022/07/13 07:27:02;;;;;;;3.60;1.50;;;23.40;63.90;;;;;;5058478;28;20454;-76
2022/07/13 07:29:30;;;;;;;4.73;1.50;;;23.40;63.70;;;;;;5062666;28;20474;-77
2022/07/13 07:31:58;;;;;;;4.43;1.80;;;23.50;63.50;;;;;;5057668;28;20562;-76
2022/07/13 07:34:32;;;;;;;4.27;1.70;;;23.60;63.10;;;;;;5060805;28;20814;-76
2022/07/13 07:37:01;;;;;;;10.13;1.67;;;23.70;62.60;;;;;;5060979;28;20462;-76
2022/07/13 07:39:29;;;;;;;3.83;1.47;;;23.80;62.50;;;;;;5039865;28;20550;-77
2022/07/13 07:41:57;;;;;;;5.30;1.80;;;23.90;62.30;;;;;;5058252;28;20463;-76
2022/07/13 07:44:25;;;;;;;3.70;1.40;;;24.00;61.70;;;;;;5060891;28;20478;-77
2022/07/13 07:46:54;;;;;;;3.63;1.33;;;24.20;61.40;;;;;;5062290;28;20477;-76
2022/07/13 07:49:22;;;;;;;6.13;1.50;;;24.20;61.10;;;;;;5060988;28;20860;-77
2022/07/13 07:51:50;;;;;;;4.30;1.60;;;24.30;60.90;;;;;;5056366;28;20443;-76
2022/07/13 07:54:40;;;;;;;8.63;1.53;;;24.40;60.80;;;;;;5056881;28;20880;-76
2022/07/13 07:57:07;;;;;;;4.20;1.37;;;24.50;60.60;;;;;;5058381;28;20460;-76
2022/07/13 07:59:35;;;;;;;5.07;1.60;;;24.50;60.60;;;;;;5036198;28;20491;-76
2022/07/13 08:02:03;;;;;;;3.50;1.13;;;24.60;60.40;;;;;;5054089;28;20467;-76
2022/07/13 08:04:32;;;;;;;5.13;1.70;;;24.70;60.10;;;;;;5062410;28;20474;-75
2022/07/13 08:07:00;;;;;;;4.10;1.47;;;24.80;60.00;;;;;;5059455;28;20829;-75
2022/07/13 08:09:28;;;;;;;5.80;1.83;;;24.80;59.70;;;;;;5057990;28;20496;-76
2022/07/13 08:11:58;;;;;;;5.07;1.53;;;24.90;59.50;;;;;;5059044;28;20450;-76
2022/07/13 08:14:26;;;;;;;3.63;1.60;;;24.90;59.50;;;;;;5036761;28;20485;-76
2022/07/13 08:16:54;;;;;;;5.30;1.70;;;24.90;59.30;;;;;;5058349;28;20477;-76
2022/07/13 08:19:23;;;;;;;5.40;1.70;;;25.00;59.20;;;;;;5056701;28;20930;-76
2022/07/13 08:22:09;;;;;;;4.63;1.57;;;25.10;59.20;;;;;;5044941;28;20448;-76
2022/07/13 08:24:37;;;;;;;4.10;1.80;;;25.10;59.20;;;;;;5056861;28;20478;-76
2022/07/13 08:27:06;;;;;;;4.57;2.13;;;25.20;59.00;;;;;;5055396;28;20913;-76
2022/07/13 08:29:34;;;;;;;7.13;1.77;;;25.30;58.90;;;;;;5056737;28;20490;-76
2022/07/13 08:32:02;;;;;;;4.23;1.83;;;25.50;58.90;;;;;;5055225;28;21101;-76
2022/07/13 08:40:08;;;;;;;8.03;1.93;;;25.70;58.20;;;;;;5051720;28;20586;-76
2022/07/13 08:42:38;;;;;;;3.67;1.43;;;25.80;57.90;;;;;;5057335;28;20463;-76
2022/07/13 08:45:08;;;;;;;4.37;1.73;;;25.90;57.60;;;;;;5053685;28;20472;-76
2022/07/13 08:47:37;;;;;;;3.93;1.77;;;26.00;57.40;;;;;;5063089;28;20457;-75
2022/07/13 08:50:07;;;;;;;4.07;1.50;;;26.00;57.20;;;;;;5056844;28;20462;-78
2022/07/13 08:52:36;;;;;;;4.20;1.80;;;26.00;57.10;;;;;;5057925;28;20577;-75
2022/07/13 08:55:06;;;;;;;3.80;1.30;;;26.10;57.00;;;;;;5054807;28;20461;-76
2022/07/13 08:57:35;;;;;;;5.13;1.40;;;26.10;56.80;;;;;;5058245;28;20449;-76
2022/07/13 09:00:07;;;;;;;3.60;1.30;;;26.10;56.70;;;;;;5057181;28;20469;-76
2022/07/13 09:02:35;;;;;;;4.00;1.57;;;26.20;56.50;;;;;;5059004;28;20493;-76
2022/07/13 09:05:05;;;;;;;3.50;1.40;;;26.20;56.60;;;;;;5056718;28;20463;-75
2022/07/13 09:07:34;;;;;;;4.57;1.60;;;26.20;56.40;;;;;;5056262;28;20463;-76
2022/07/13 09:10:04;;;;;;;3.57;1.27;;;26.30;56.10;;;;;;5061114;28;20462;-76
2022/07/13 09:12:35;;;;;;;4.63;1.47;;;26.40;55.80;;;;;;5039864;28;20465;-76
2022/07/13 09:15:06;;;;;;;3.97;1.63;;;26.40;55.80;;;;;;5056310;28;20464;-76
2022/07/13 09:17:37;;;;;;;3.47;1.33;;;26.50;55.70;;;;;;5056584;28;20463;-76
2022/07/13 09:20:19;;;;;;;3.60;1.30;;;26.50;55.60;;;;;;5058794;28;20508;-76
2022/07/13 09:22:58;;;;;;;4.90;1.53;;;26.60;55.50;;;;;;5061559;28;20475;-76
2022/07/13 09:25:29;;;;;;;3.83;1.23;;;26.60;55.30;;;;;;5057828;28;20500;-76
2022/07/13 09:28:01;;;;;;;4.60;1.33;;;26.60;55.30;;;;;;5060979;28;20881;-76
2022/07/13 09:30:30;;;;;;;3.60;1.47;;;26.60;55.00;;;;;;5056423;28;20982;-76
2022/07/13 09:32:59;;;;;;;3.93;1.30;;;26.70;54.90;;;;;;5053540;28;20448;-75
2022/07/13 09:35:47;;;;;;;3.73;1.33;;;26.80;55.00;;;;;;5056543;28;20480;-76
2022/07/13 09:38:29;;;;;;;4.10;1.63;;;26.80;54.80;;;;;;5057525;28;20889;-76
2022/07/13 09:40:57;;;;;;;5.20;1.57;;;26.90;54.70;;;;;;5054724;28;20443;-76
2022/07/13 09:46:12;;;;;;;3.50;1.30;;;27.00;54.70;;;;;;5055242;28;20559;-76
2022/07/13 09:48:40;;;;;;;3.70;1.47;;;27.10;54.50;;;;;;5056548;28;20500;-76
2022/07/13 09:51:09;;;;;;;5.10;1.97;;;27.20;54.40;;;;;;5058831;28;20510;-76
2022/07/13 09:53:37;;;;;;;4.43;1.77;;;27.20;54.30;;;;;;5053763;28;20475;-76
2022/07/13 09:56:06;;;;;;;4.80;1.57;;;27.20;54.00;;;;;;5053495;28;20500;-76
2022/07/13 09:58:37;;;;;;;4.63;1.63;;;27.30;53.70;;;;;;5054895;28;20477;-75
2022/07/13 10:01:06;;;;;;;3.73;1.50;;;27.30;54.00;;;;;;5055872;28;20482;-76
2022/07/13 10:03:37;;;;;;;3.63;1.27;;;27.30;53.70;;;;;;5053720;28;20488;-75
2022/07/13 10:06:14;;;;;;;6.43;1.50;;;27.40;53.60;;;;;;5053487;28;20568;-76
2022/07/13 10:08:42;;;;;;;6.10;1.70;;;27.50;53.80;;;;;;5040258;28;20481;-75
2022/07/13 10:11:10;;;;;;;4.07;1.47;;;27.60;53.30;;;;;;5057318;28;20993;-76
2022/07/13 10:13:39;;;;;;;4.07;1.50;;;27.60;53.10;;;;;;5059112;28;20455;-75
2022/07/13 10:16:07;;;;;;;3.30;1.30;;;27.50;53.20;;;;;;5053210;28;20492;-75
2022/07/13 10:18:39;;;;;;;3.93;1.57;;;27.60;53.20;;;;;;5058298;28;20490;-75
2022/07/13 10:21:14;;;;;;;4.23;1.40;;;27.60;53.00;;;;;;5054743;28;20507;-75
2022/07/13 10:23:43;;;;;;;3.90;1.43;;;27.70;52.80;;;;;;5038602;28;20457;-75
2022/07/13 10:26:21;;;;;;;4.47;1.10;;;27.70;52.70;;;;;;5051781;28;20837;-75
2022/07/13 10:29:03;;;;;;;3.93;1.23;;;27.70;52.30;;;;;;5054136;28;20513;-75
2022/07/13 10:31:33;;;;;;;4.50;1.40;;;27.80;52.10;;;;;;5055675;28;20488;-75
2022/07/13 10:34:03;;;;;;;4.10;1.47;;;27.80;51.90;;;;;;5055646;28;20450;-75
2022/07/13 10:36:54;;;;;;;3.60;1.30;;;27.90;51.80;;;;;;5060974;28;20830;-75
2022/07/13 10:39:24;;;;;;;3.50;1.23;;;27.90;51.60;;;;;;5056700;28;20569;-76
2022/07/13 10:42:01;;;;;;;3.27;1.10;;;28.00;51.20;;;;;;5042706;28;20484;-74
2022/07/13 10:44:37;;;;;;;5.60;1.47;;;28.00;50.90;;;;;;5057504;28;20466;-74
2022/07/13 10:47:07;;;;;;;3.40;1.10;;;28.10;50.60;;;;;;5057591;28;20938;-74
2022/07/13 10:49:47;;;;;;;3.70;1.23;;;28.10;50.40;;;;;;5055960;28;20474;-74
2022/07/13 10:52:51;;;;;;;3.90;1.30;;;28.20;50.20;;;;;;5056284;28;20455;-74
2022/07/13 10:55:47;;;;;;;4.43;1.13;;;28.10;50.00;;;;;;5053239;28;20832;-75
2022/07/13 10:58:44;;;;;;;3.50;1.10;;;28.20;49.60;;;;;;5056451;28;20595;-73
2022/07/13 11:01:36;;;;;;;3.40;1.10;;;28.20;49.50;;;;;;5043380;28;20831;-74
2022/07/13 11:04:06;;;;;;;3.30;1.07;;;28.20;49.40;;;;;;5054209;28;20545;-74
2022/07/13 11:06:36;;;;;;;3.83;1.20;;;28.30;49.50;;;;;;5035294;28;21194;-74
2022/07/13 11:09:18;;;;;;;5.00;1.23;;;28.40;49.40;;;;;;5054494;28;20556;-74
2022/07/13 11:11:49;;;;;;;3.90;1.20;;;28.40;49.30;;;;;;5055906;28;20954;-73
2022/07/13 11:14:59;;;;;;;4.93;1.37;;;28.40;49.20;;;;;;5054100;28;20451;-74
2022/07/13 11:17:28;;;;;;;5.90;1.20;;;28.40;49.10;;;;;;5053437;28;20561;-74
2022/07/13 11:20:09;;;;;;;4.20;1.50;;;28.40;49.00;;;;;;5054819;28;20494;-75
2022/07/13 11:25:48;;;;;;;3.70;1.30;;;28.50;48.90;;;;;;5056422;28;20489;-75
2022/07/13 11:28:28;;;;;;;4.37;1.37;;;28.50;48.90;;;;;;5051501;28;21039;-75
2022/07/13 11:30:56;;;;;;;4.33;1.23;;;28.50;48.90;;;;;;5049334;28;21169;-75
2022/07/13 11:33:25;;;;;;;3.67;1.43;;;28.60;48.80;;;;;;5051227;28;20493;-74
2022/07/13 11:35:54;;;;;;;4.00;1.10;;;28.60;48.70;;;;;;5053908;28;20462;-74
2022/07/13 11:38:24;;;;;;;3.70;1.30;;;28.60;48.70;;;;;;5053077;28;20837;-74
2022/07/13 11:40:52;;;;;;;4.50;1.30;;;28.60;48.50;;;;;;5052691;28;20461;-75
2022/07/13 11:43:19;;;;;;;3.60;1.37;;;28.60;48.60;;;;;;5051827;28;20461;-74
2022/07/13 11:45:47;;;;;;;3.50;1.20;;;28.70;48.50;;;;;;5061922;28;20497;-75
2022/07/13 11:48:15;;;;;;;3.67;1.17;;;28.70;48.20;;;;;;5057077;28;20849;-74
2022/07/13 11:50:46;;;;;;;3.50;1.10;;;28.70;48.10;;;;;;5056424;28;21000;-75
2022/07/13 11:53:27;;;;;;;9.83;1.37;;;28.80;48.00;;;;;;5056665;28;20539;-75
2022/07/13 11:55:57;;;;;;;3.53;1.10;;;28.80;47.70;;;;;;5055248;28;20473;-75
2022/07/13 11:58:28;;;;;;;3.60;1.20;;;28.80;47.60;;;;;;5056249;28;20854;-75
2022/07/13 12:00:57;;;;;;;3.87;0.90;;;28.80;47.70;;;;;;5058099;28;20898;-75
2022/07/13 12:11:44;;;;;;;4.80;1.27;;;28.80;46.70;;;;;;5055301;28;20461;-76
2022/07/13 12:14:13;;;;;;;3.40;1.10;;;28.90;46.50;;;;;;5058178;28;21026;-75
2022/07/13 12:16:41;;;;;;;3.30;1.07;;;28.90;46.30;;;;;;5055934;28;20547;-75
2022/07/13 12:19:09;;;;;;;3.20;0.83;;;28.90;46.10;;;;;;5058699;28;20489;-76
2022/07/13 12:21:37;;;;;;;3.20;0.80;;;29.00;46.00;;;;;;5059326;28;20465;-76
2022/07/13 12:24:06;;;;;;;4.50;0.90;;;29.00;45.90;;;;;;5058919;28;20972;-76
2022/07/13 12:26:34;;;;;;;3.20;0.73;;;29.00;45.70;;;;;;5056489;28;20484;-78
2022/07/13 12:29:04;;;;;;;3.13;0.70;;;29.10;45.20;;;;;;5041552;28;20476;-78
2022/07/13 12:31:32;;;;;;;3.50;0.83;;;29.10;45.20;;;;;;5059016;28;20489;-76
2022/07/13 12:34:01;;;;;;;3.30;0.93;;;29.10;45.10;;;;;;5056854;28;20469;-75
2022/07/13 12:36:29;;;;;;;5.87;1.00;;;29.20;44.90;;;;;;5053630;28;20452;-75
2022/07/13 12:38:59;;;;;;;6.07;1.10;;;29.20;44.80;;;;;;5058148;28;20472;-75
2022/07/13 12:41:29;;;;;;;4.60;0.90;;;29.20;44.60;;;;;;5062288;28;20559;-75
2022/07/13 12:43:59;;;;;;;4.70;0.90;;;29.10;44.40;;;;;;5055879;28;20461;-76
2022/07/13 12:46:45;;;;;;;3.20;0.80;;;29.10;44.30;;;;;;5057269;28;20856;-76
2022/07/13 12:49:14;;;;;;;4.60;1.10;;;29.10;44.00;;;;;;5052762;28;20488;-75
2022/07/13 12:51:46;;;;;;;201.00;18.83;;;29.10;43.80;;;;;;5055417;28;20450;-74
2022/07/13 12:54:15;;;;;;;37.03;4.17;;;29.10;43.80;;;;;;5055820;28;20500;-76
2022/07/13 12:56:49;;;;;;;19.53;1.57;;;29.10;43.80;;;;;;5038240;28;20934;-77
2022/07/13 12:59:19;;;;;;;5.40;1.33;;;29.10;43.80;;;;;;5054996;28;20473;-76
2022/07/13 13:01:49;;;;;;;67.20;8.30;;;29.10;44.00;;;;;;5056531;28;20484;-77
2022/07/13 13:04:18;;;;;;;162.57;16.17;;;29.10;44.20;;;;;;5058378;28;20530;-77
2022/07/13 13:06:47;;;;;;;106.00;12.10;;;29.10;44.50;;;;;;5040989;28;20905;-77
2022/07/13 13:09:16;;;;;;;88.83;11.00;;;29.10;44.80;;;;;;5057867;28;20475;-77
2022/07/13 13:11:46;;;;;;;23.23;3.33;;;29.10;45.00;;;;;;5056609;28;20460;-75
2022/07/13 13:14:14;;;;;;;26.33;4.00;;;29.10;45.10;;;;;;5046559;28;20472;-75
2022/07/13 13:16:43;;;;;;;7.67;1.40;;;29.10;45.10;;;;;;5056609;28;20483;-76
2022/07/13 13:19:12;;;;;;;48.60;4.47;;;29.20;45.10;;;;;;5056125;28;20483;-77
2022/07/13 13:21:40;;;;;;;11.63;2.27;;;29.20;45.20;;;;;;5059181;28;20470;-77
2022/07/13 13:24:09;;;;;;;149.40;17.47;;;29.20;45.50;;;;;;5043985;28;20457;-76